Irigoien Berria — EAGS — position and weather

sailwx.info

Track history (hours):
 
Tides and Currents Weather Stations Pressure Air Temp Water Temp Dewpoint Dewpoint Depression Visibility Wind Speed Wind Dir Waves Ship Positions

Irigoien Berria

Last reported at 2017-Aug-28 19:37 UTC. Time now 2017-Sep-19 15:25 UTC.
Position N 44°59' W 002°35'.
Warning: this ship's position is 21 days out of date.

Length 35 m.

Type: Fishing. MMSI: 224004770.

Date/timePositionNaut miles runAvg speedWind from/ knotsBaromVisibWave heightAir tempDewpointWater temp
2017-Aug-28 19:37N 44°59' W 002°35'1 9.7
2017-Aug-28 19:30N 44°59' W 002°36'5 9.7
2017-Aug-28 19:00N 44°60' W 002°43'6 1.2
2017-Aug-28 13:48N 44°59' W 002°52'3 9.2
2017-Aug-28 13:30N 44°57' W 002°50'4 7.1
2017-Aug-28 12:54N 44°53' W 002°48'4 9.7
2017-Aug-28 12:30N 44°49' W 002°48'37 2.3
2017-Aug-27 20:42N 45°04' W 002°01'210.0
2017-Aug-27 20:30N 45°03' W 002°03'510.1
2017-Aug-27 20:00N 44°59' W 002°07'11 6.3
2017-Aug-27 18:20N 44°51' W 002°16'8 1.7
2017-Aug-27 13:37N 44°43' W 002°17'0 1.0
2017-Aug-27 13:28N 44°43' W 002°17'1 2.0
2017-Aug-27 12:59N 44°43' W 002°16'1 1.8
2017-Aug-27 12:30N 44°42' W 002°17'5 9.3
2017-Aug-27 11:58N 44°40' W 002°23'15 9.5
2017-Aug-27 10:22N 44°38' W 002°44'19 9.7
2017-Aug-27 08:23N 44°31' W 003°10'1 3.6
2017-Aug-27 08:00N 44°31' W 003°11'  
2017-Aug-25 02:51N 43°37' W 005°34'3 9.1
2017-Aug-25 02:29N 43°35' W 005°38'3 6.6
2017-Aug-25 01:58N 43°33' W 005°42'0 0.0
2017-Aug-25 01:17N 43°33' W 005°42'0 0.3
2017-Aug-25 00:51N 43°33' W 005°42'0 0.0
2017-Aug-25 00:27N 43°33' W 005°42'1 0.1
2017-Aug-24 18:21N 43°34' W 005°41'  
2017-Aug-19 18:39N 43°37' W 005°34'3 9.0
2017-Aug-19 18:19N 43°35' W 005°38'3 7.9
2017-Aug-19 17:55N 43°33' W 005°42'0 0.0
2017-Aug-19 14:47N 43°33' W 005°42'  
Track history (hours):
 
Tides and Currents Weather Stations Pressure Air Temp Water Temp Dewpoint Dewpoint Depression Visibility Wind Speed Wind Dir Waves Ship Positions

Irigoien Berria

Last reported at 2017-Aug-28 19:37 UTC. Time now 2017-Sep-19 15:25 UTC.
Position N 44°59' W 002°35'.
Warning: this ship's position is 21 days out of date.

Length 35 m.

Type: Fishing. MMSI: 224004770.

Date/timePositionNaut miles runAvg speedWind from/ knotsBaromVisibWave heightAir tempDewpointWater temp
2017-Aug-28 19:37N 44°59' W 002°35'1 9.7
2017-Aug-28 19:30N 44°59' W 002°36'5 9.7
2017-Aug-28 19:00N 44°60' W 002°43'6 1.2
2017-Aug-28 13:48N 44°59' W 002°52'3 9.2
2017-Aug-28 13:30N 44°57' W 002°50'4 7.1
2017-Aug-28 12:54N 44°53' W 002°48'4 9.7
2017-Aug-28 12:30N 44°49' W 002°48'37 2.3
2017-Aug-27 20:42N 45°04' W 002°01'210.0
2017-Aug-27 20:30N 45°03' W 002°03'510.1
2017-Aug-27 20:00N 44°59' W 002°07'11 6.3
2017-Aug-27 18:20N 44°51' W 002°16'8 1.7
2017-Aug-27 13:37N 44°43' W 002°17'0 1.0
2017-Aug-27 13:28N 44°43' W 002°17'1 2.0
2017-Aug-27 12:59N 44°43' W 002°16'1 1.8
2017-Aug-27 12:30N 44°42' W 002°17'5 9.3
2017-Aug-27 11:58N 44°40' W 002°23'15 9.5
2017-Aug-27 10:22N 44°38' W 002°44'19 9.7
2017-Aug-27 08:23N 44°31' W 003°10'1 3.6
2017-Aug-27 08:00N 44°31' W 003°11'  
2017-Aug-25 02:51N 43°37' W 005°34'3 9.1
2017-Aug-25 02:29N 43°35' W 005°38'3 6.6
2017-Aug-25 01:58N 43°33' W 005°42'0 0.0
2017-Aug-25 01:17N 43°33' W 005°42'0 0.3
2017-Aug-25 00:51N 43°33' W 005°42'0 0.0
2017-Aug-25 00:27N 43°33' W 005°42'1 0.1
2017-Aug-24 18:21N 43°34' W 005°41'  
2017-Aug-19 18:39N 43°37' W 005°34'3 9.0
2017-Aug-19 18:19N 43°35' W 005°38'3 7.9
2017-Aug-19 17:55N 43°33' W 005°42'0 0.0
2017-Aug-19 14:47N 43°33' W 005°42'  

Dump ship's entire track history